Airfield :
LOGIN :

Register | Disclaimer

   EN    FR    IT 

 










Legend :    VFR   Marginal VFR   IFR   Intensive IFR   Very Intensive IFR
Visi :
Ceiling :
>= 8 km
>= 3000ft
5 to 8 km
1000 to 3000 ft
1500m to 5 km
500 to 1000 ft
800 to 1500m
200 to 500 ft
< 800m
< 200 ft
Symbols :   Thunderstorms  Fog  Heavy snow  Heavy precipitations  Wind > 20 kt
SIGMETs :     Misc.  Thunderstorms  Icing  Turbulence  Mountain Waves  Volcanic Ashes







- Airport Elevation : 97 ft
- IATA code : EBJ


EKEB - Esbjerg

CURRENT METAR :
  • 171120Z AUTO 17006KT 130V200 7000 BKN017/// 08/07 Q1021

EXPIRED METARs :
  • 171050Z AUTO 18006KT 140V200 9000 OVC013/// 09/08 Q1021
  • 171020Z AUTO 20006KT 9999 OVC011/// 09/08 Q1021
  • 170950Z AUTO 19006KT 9999 OVC018/// 09/08 Q1021
  • 170920Z AUTO 18005KT 140V200 7000 OVC021/// 08/07 Q1021
  • 170850Z AUTO 20007KT 6000 OVC022/// 07/07 Q1021

TAF TAF EKEB
Valid from the 17 at 12:00 until the 17 at 21:00 UTC


171121Z 1712/1721 17008KT 7000 BKN016
BECMG 1716/1718 3000 BR
TEMPO 1718/1721 6000 NSW
No reported NOTAMs for that airfield.



MET'MAP, your aeronautical weather chart ! - Copyright ORBIFLY December 2007 - Disclaimer

ORBIFLY MET'MAP TEAM :

Programming & Development : Alexandra Zaïnal
Concept & Development : Baudouin d'Aumeries
Co-Development & Prog : Marc-Olivier Méhu
Technical & hardware support : Manuel Goepfert

Contact : metmap@orbifly.com




SOURCES & CREDITS :

   NOAA